Airport View

Enter AWOS ICAO identifier for current METAR.

ex. KFNL

KPNS 261153Z 36005KT 10SM CLR 26/21 A3016 RMK AO2 SLP213 T02560206 10267 20228 51018

26 Jun 2019 12:35

Phone: 850-436-4799

Other Area AWOS: KNPA - KNDZ - KNSE - KHRT

TAF KPNS 261120Z 2612/2712 VRB03KT P6SM FEW030 BKN250 FM261800 06007KT P6SM VCTS SCT040CB BKN250 FM270300 35004KT P6SM SCT250